Terminal Aerodrome Forecast
Issued by NWS

Home | Current Version | Previous Version | Text Only | Print | Product List | Glossary On
Versions: 1 2 3 4 5 6 7 8 9 10 11 12
000
FTUS44 KLIX 220520
TAFGPT
TAF
KGPT 220520Z 2206/2306 VRB03KT P6SM SCT020 BKN110
     FM221400 02004KT P6SM SCT025 BKN110
     FM221700 11005KT P6SM SCT030 BKN100 PROB30 2217/2221 4SM -TSRA
      BKN025CB
     FM222100 17007KT P6SM SCT030 BKN100 PROB30 2221/2303 4SM -TSRA
      BKN025CB
     FM230300 19004KT P6SM FEW030 SCT100=

USA.gov is the U.S. government's official web portal to all federal, state and local government web resources and services.